Time;durP1;ratioP1;P1;durP2;ratioP2;P2;SDS_P1;SDS_P2;PMS_P1;PMS_P2;Temp;Humidity;BMP_temperature;BMP_pressure;BME280_temperature;BME280_humidity;BME280_pressure;Samples;Min_cycle;Max_cycle;Signal;HPM_P1;HPM_P2
2023/09/17 00:01:00;;;;;;;13.60;8.07;;;;;;;15.30;100.00;100798.03;5025942;28;20029;-53
2023/09/17 00:03:26;;;;;;;12.60;5.88;;;;;;;15.31;100.00;100792.50;5025055;28;20570;-53
2023/09/17 00:05:51;;;;;;;13.18;7.00;;;;;;;15.32;100.00;100791.44;5019526;28;20055;-54
2023/09/17 00:08:18;;;;;;;9.70;6.50;;;;;;;15.34;100.00;100789.38;5023102;28;20482;-55
2023/09/17 00:10:45;;;;;;;6.97;4.97;;;;;;;15.26;100.00;100793.13;5029696;28;20083;-55
2023/09/17 00:13:11;;;;;;;5.30;4.20;;;;;;;15.18;100.00;100787.19;5021541;28;20032;-54
2023/09/17 00:15:36;;;;;;;9.52;5.68;;;;;;;15.15;100.00;100798.31;5020427;28;20036;-49
2023/09/17 00:18:02;;;;;;;14.40;7.15;;;;;;;15.09;100.00;100809.84;5016975;28;20030;-55
2023/09/17 00:20:27;;;;;;;15.27;8.25;;;;;;;15.09;100.00;100810.66;5028040;28;20082;-55
2023/09/17 00:22:52;;;;;;;10.90;7.05;;;;;;;15.03;100.00;100807.00;5017636;28;20120;-54
2023/09/17 00:25:18;;;;;;;7.93;6.15;;;;;;;15.03;100.00;100808.84;5018654;28;20077;-53
2023/09/17 00:27:43;;;;;;;9.13;7.10;;;;;;;14.97;100.00;100807.84;5018677;28;20116;-53
2023/09/17 00:30:09;;;;;;;9.85;8.18;;;;;;;14.96;100.00;100808.88;5024328;28;20459;-53
2023/09/17 00:32:35;;;;;;;11.52;7.57;;;;;;;14.97;100.00;100802.53;5016785;28;20308;-55
2023/09/17 00:35:00;;;;;;;9.48;6.20;;;;;;;14.95;100.00;100809.91;5018534;28;20025;-56
2023/09/17 00:37:25;;;;;;;12.73;7.00;;;;;;;14.99;100.00;100799.63;5009923;28;20407;-54
2023/09/17 00:39:51;;;;;;;7.82;6.47;;;;;;;15.00;100.00;100809.28;5020511;28;20525;-56
2023/09/17 00:42:16;;;;;;;6.85;6.15;;;;;;;15.01;100.00;100803.72;5019957;28;20046;-51
2023/09/17 00:44:42;;;;;;;12.98;8.35;;;;;;;15.02;100.00;100805.38;5019704;28;20025;-54
2023/09/17 00:47:07;;;;;;;10.18;6.55;;;;;;;14.98;100.00;100796.13;5016873;28;20075;-53
2023/09/17 00:49:33;;;;;;;13.30;7.35;;;;;;;14.95;100.00;100806.44;5017655;28;20335;-52
2023/09/17 00:52:01;;;;;;;18.40;8.35;;;;;;;15.02;100.00;100785.84;5019225;28;20566;-52
2023/09/17 00:54:28;;;;;;;11.35;8.02;;;;;;;15.08;100.00;100798.34;5023051;28;20071;-54
2023/09/17 00:56:55;;;;;;;9.45;7.57;;;;;;;15.09;100.00;100796.50;5017416;28;20036;-54
2023/09/17 00:59:21;;;;;;;16.30;9.30;;;;;;;15.08;100.00;100797.53;5019521;28;20029;-56
2023/09/17 01:01:46;;;;;;;11.95;6.70;;;;;;;15.07;100.00;100817.25;5017691;28;20569;-54
2023/09/17 01:04:13;;;;;;;13.27;6.47;;;;;;;15.05;100.00;100810.28;5028454;28;20287;-54
2023/09/17 01:06:39;;;;;;;8.93;6.47;;;;;;;15.02;100.00;100812.53;5019215;28;20706;-52
2023/09/17 01:09:05;;;;;;;17.33;8.98;;;;;;;15.00;100.00;100804.75;5013672;28;20065;-53
2023/09/17 01:11:31;;;;;;;11.90;7.65;;;;;;;14.96;100.00;100800.84;5013153;28;20108;-55
2023/09/17 01:14:08;;;;;;;11.93;6.60;;;;;;;14.96;100.00;100800.84;5018064;28;20037;-53
2023/09/17 01:16:34;;;;;;;7.68;6.57;;;;;;;15.02;100.00;100809.88;5013959;28;20049;-55
2023/09/17 01:19:00;;;;;;;12.50;7.10;;;;;;;15.08;100.00;100806.38;5021169;28;20746;-55
2023/09/17 01:21:52;;;;;;;10.93;7.25;;;;;;;15.15;100.00;100807.13;5019651;28;20025;-55
2023/09/17 01:24:26;;;;;;;10.70;8.43;;;;;;;15.14;100.00;100802.03;5013841;28;20042;-55
2023/09/17 01:27:01;;;;;;;15.68;8.88;;;;;;;15.15;100.00;100803.66;5014314;28;20103;-54
2023/09/17 01:29:32;;;;;;;13.32;7.85;;;;;;;15.19;100.00;100797.66;5018449;28;20033;-53
2023/09/17 01:31:57;;;;;;;7.97;6.03;;;;;;;15.23;100.00;100798.91;5023805;28;20419;-56
2023/09/17 01:34:23;;;;;;;13.50;8.30;;;;;;;15.16;100.00;100790.09;5024066;28;20083;-56
2023/09/17 01:36:49;;;;;;;9.77;6.63;;;;;;;15.15;100.00;100787.63;5016859;28;20057;-54
2023/09/17 01:39:25;;;;;;;15.38;6.85;;;;;;;15.11;100.00;100786.44;5023584;28;20552;-54
2023/09/17 01:41:50;;;;;;;11.18;6.68;;;;;;;15.07;100.00;100783.34;5011978;28;20431;-55
2023/09/17 01:44:17;;;;;;;6.78;5.40;;;;;;;15.06;100.00;100787.06;5018871;28;20310;-55
2023/09/17 01:46:44;;;;;;;16.95;9.15;;;;;;;15.09;100.00;100791.97;5012962;28;20022;-52
2023/09/17 01:49:11;;;;;;;10.70;6.82;;;;;;;15.10;100.00;100796.31;5020530;28;20382;-54
2023/09/17 01:51:39;;;;;;;11.73;7.35;;;;;;;15.11;100.00;100794.44;5010757;28;20757;-52
2023/09/17 01:54:05;;;;;;;10.98;6.82;;;;;;;15.11;100.00;100792.59;5012079;28;20504;-56
2023/09/17 01:56:34;;;;;;;9.95;7.07;;;;;;;15.16;100.00;100802.63;5012152;28;20400;-51
2023/09/17 01:59:00;;;;;;;11.02;7.20;;;;;;;15.19;100.00;100799.53;5017113;28;20032;-56
2023/09/17 02:01:25;;;;;;;9.27;5.57;;;;;;;15.19;100.00;100797.66;5016816;28;20041;-56
2023/09/17 02:03:50;;;;;;;9.65;5.93;;;;;;;15.18;100.00;100797.88;5028335;28;20053;-52
2023/09/17 02:06:16;;;;;;;8.30;6.45;;;;;;;15.17;100.00;100797.06;5015771;28;20124;-56
2023/09/17 02:08:41;;;;;;;10.13;6.47;;;;;;;15.18;100.00;100805.88;5015021;28;20029;-57
2023/09/17 02:11:06;;;;;;;11.18;7.05;;;;;;;15.22;100.00;100801.78;5020577;28;20039;-57
2023/09/17 02:13:32;;;;;;;10.95;6.28;;;;;;;15.33;100.00;100802.94;5011906;28;20114;-52
2023/09/17 02:15:57;;;;;;;10.63;5.93;;;;;;;15.26;100.00;100797.66;5023872;28;20144;-51
2023/09/17 02:18:23;;;;;;;10.50;7.00;;;;;;;15.33;100.00;100794.91;5018027;28;20053;-57
2023/09/17 02:20:48;;;;;;;10.10;5.65;;;;;;;15.40;100.00;100785.03;5019019;28;20034;-56
2023/09/17 02:23:14;;;;;;;12.43;6.45;;;;;;;15.44;100.00;100781.72;5011339;28;20121;-53
2023/09/17 02:25:39;;;;;;;10.30;5.85;;;;;;;15.58;100.00;100774.41;5020052;28;20033;-53
2023/09/17 02:28:04;;;;;;;8.93;6.20;;;;;;;15.62;100.00;100762.25;5020019;28;20479;-57
2023/09/17 02:30:30;;;;;;;9.77;7.20;;;;;;;15.53;100.00;100774.25;5027359;28;20030;-55
2023/09/17 02:32:56;;;;;;;8.30;6.03;;;;;;;15.55;100.00;100780.19;5025679;28;20020;-53
2023/09/17 02:35:21;;;;;;;13.73;7.32;;;;;;;15.61;100.00;100778.50;5028537;28;20142;-53
2023/09/17 02:37:46;;;;;;;12.43;6.80;;;;;;;15.79;100.00;100777.78;5021013;28;20037;-57
2023/09/17 02:40:12;;;;;;;7.95;6.03;;;;;;;15.84;100.00;100765.38;5022036;28;20474;-50
2023/09/17 02:42:38;;;;;;;14.98;7.60;;;;;;;15.81;100.00;100757.00;5018826;28;20065;-53
2023/09/17 02:45:05;;;;;;;12.88;7.35;;;;;;;15.78;100.00;100760.94;5021918;28;20457;-56
2023/09/17 02:47:34;;;;;;;11.75;8.25;;;;;;;15.90;100.00;100761.03;5017280;28;20077;-55
2023/09/17 02:50:00;;;;;;;15.73;9.20;;;;;;;15.94;100.00;100754.22;5025063;28;20275;-53
2023/09/17 02:52:26;;;;;;;17.30;8.27;;;;;;;15.96;100.00;100745.97;5019320;28;20037;-56
2023/09/17 02:54:53;;;;;;;13.13;7.88;;;;;;;15.88;100.00;100747.06;5023400;28;20530;-56
2023/09/17 02:57:18;;;;;;;13.10;8.32;;;;;;;15.87;100.00;100738.22;5016359;28;20208;-55
2023/09/17 02:59:44;;;;;;;14.38;7.25;;;;;;;15.86;100.00;100733.91;5025538;28;20124;-52
2023/09/17 03:02:09;;;;;;;20.15;10.73;;;;;;;15.82;100.00;100739.91;5018902;28;20054;-55
2023/09/17 03:04:36;;;;;;;14.63;9.75;;;;;;;15.84;100.00;100735.97;5021138;28;20099;-56
2023/09/17 03:07:03;;;;;;;13.70;8.77;;;;;;;15.84;100.00;100733.31;5017148;28;20029;-54
2023/09/17 03:09:29;;;;;;;13.55;9.32;;;;;;;15.82;100.00;100735.38;5022537;28;20044;-56
2023/09/17 03:11:54;;;;;;;20.25;10.68;;;;;;;15.78;100.00;100739.53;5022565;28;20037;-54
2023/09/17 03:14:20;;;;;;;16.52;9.27;;;;;;;15.81;100.00;100736.44;5022366;28;20069;-52
2023/09/17 03:16:45;;;;;;;22.65;9.63;;;;;;;15.83;100.00;100731.69;5020362;28;20471;-57
2023/09/17 03:19:12;;;;;;;12.48;9.77;;;;;;;15.83;100.00;100739.72;5023715;28;20147;-55
2023/09/17 03:21:40;;;;;;;16.88;9.45;;;;;;;15.81;100.00;100731.06;5016961;28;20634;-53
2023/09/17 03:24:09;;;;;;;20.65;10.65;;;;;;;15.78;100.00;100728.84;5018297;28;20041;-54
2023/09/17 03:26:36;;;;;;;19.85;10.55;;;;;;;15.79;100.00;100730.47;5018704;28;20029;-53
2023/09/17 03:29:02;;;;;;;19.92;9.88;;;;;;;15.79;100.00;100737.69;5015151;28;20080;-56
2023/09/17 03:31:27;;;;;;;13.55;8.07;;;;;;;15.81;100.00;100736.44;5030635;28;20041;-56
2023/09/17 03:33:52;;;;;;;15.85;8.90;;;;;;;15.80;100.00;100734.81;5016022;28;20101;-53
2023/09/17 03:36:18;;;;;;;9.93;7.35;;;;;;;15.83;100.00;100737.03;5017956;28;20509;-51
2023/09/17 03:38:43;;;;;;;10.98;7.38;;;;;;;15.91;100.00;100733.25;5018685;28;20453;-53
2023/09/17 03:41:08;;;;;;;13.18;7.28;;;;;;;15.92;100.00;100735.69;5024186;28;20033;-56
2023/09/17 03:43:34;;;;;;;13.63;8.57;;;;;;;15.88;100.00;100734.53;5015852;28;20551;-55
2023/09/17 03:46:03;;;;;;;17.42;8.00;;;;;;;15.91;100.00;100739.41;5022423;28;20114;-51
2023/09/17 03:48:29;;;;;;;22.23;9.35;;;;;;;15.92;100.00;100735.69;5019539;28;20029;-53
2023/09/17 03:50:55;;;;;;;13.60;7.68;;;;;;;15.95;100.00;100725.59;5013858;28;20033;-54
2023/09/17 03:53:20;;;;;;;15.48;8.32;;;;;;;15.98;100.00;100727.84;5019788;28;20030;-55
2023/09/17 03:55:46;;;;;;;13.98;7.57;;;;;;;15.97;100.00;100731.56;5023223;28;20029;-53
2023/09/17 03:58:11;;;;;;;14.10;8.02;;;;;;;15.97;100.00;100732.38;5016307;28;20026;-55
2023/09/17 04:00:37;;;;;;;14.68;9.30;;;;;;;15.95;100.00;100734.44;5018545;28;20064;-56
2023/09/17 04:03:05;;;;;;;18.77;8.32;;;;;;;15.97;100.00;100726.22;5020846;28;20089;-57
2023/09/17 04:05:30;;;;;;;14.77;9.50;;;;;;;15.98;100.00;100728.69;5012714;28;20041;-54
2023/09/17 04:07:55;;;;;;;11.75;8.30;;;;;;;15.99;100.00;100724.13;5024488;28;20033;-53
2023/09/17 04:10:21;;;;;;;12.27;7.75;;;;;;;16.05;100.00;100731.28;5021250;28;20033;-53
2023/09/17 04:12:46;;;;;;;16.58;9.10;;;;;;;16.06;100.00;100719.56;5022452;28;20474;-54
2023/09/17 04:15:17;;;;;;;14.93;8.80;;;;;;;16.08;100.00;100717.44;5014780;28;20033;-56
2023/09/17 04:17:44;;;;;;;15.13;9.75;;;;;;;16.08;100.00;100720.97;5036753;28;20133;-55
2023/09/17 04:20:13;;;;;;;16.20;9.10;;;;;;;16.06;100.00;100725.72;5018054;28;20047;-57
2023/09/17 04:22:38;;;;;;;22.13;9.05;;;;;;;16.08;100.00;100717.44;5022901;28;20401;-53
2023/09/17 04:25:08;;;;;;;18.83;9.57;;;;;;;16.12;100.00;100710.63;5020833;28;20107;-54
2023/09/17 04:27:34;;;;;;;12.10;7.70;;;;;;;16.12;100.00;100713.31;5017940;28;20033;-55
2023/09/17 04:29:59;;;;;;;16.60;8.68;;;;;;;16.14;100.00;100706.69;5018620;28;20459;-56
2023/09/17 04:32:24;;;;;;;20.48;9.65;;;;;;;16.14;100.00;100704.00;5023086;28;20460;-52
2023/09/17 04:34:50;;;;;;;14.80;8.15;;;;;;;16.19;100.00;100698.00;5020674;28;20029;-54
2023/09/17 04:37:19;;;;;;;11.68;6.20;;;;;;;16.17;100.00;100700.09;5018017;28;20033;-53
2023/09/17 04:39:46;;;;;;;14.25;8.90;;;;;;;16.18;100.00;100700.88;5019464;28;20029;-52
2023/09/17 04:42:11;;;;;;;13.68;7.05;;;;;;;16.17;100.00;100704.63;5024088;28;20402;-54
2023/09/17 04:44:36;;;;;;;12.35;7.80;;;;;;;16.18;100.00;100698.22;5014183;28;20488;-54
2023/09/17 04:47:03;;;;;;;9.68;6.32;;;;;;;16.14;100.00;100701.34;5022208;28;20116;-53
2023/09/17 04:49:28;;;;;;;17.02;9.63;;;;;;;16.16;100.00;100702.97;5018438;28;20036;-56
2023/09/17 04:51:53;;;;;;;20.10;8.35;;;;;;;16.16;100.00;100693.09;5022696;28;20582;-56
2023/09/17 04:54:20;;;;;;;21.05;10.48;;;;;;;16.14;100.00;100696.00;5021199;28;20049;-51
2023/09/17 04:56:45;;;;;;;11.65;7.22;;;;;;;16.14;100.00;100690.66;5020639;28;20544;-52
2023/09/17 04:59:10;;;;;;;23.10;9.45;;;;;;;16.13;100.00;100681.00;5019349;28;20040;-57
2023/09/17 05:01:36;;;;;;;16.92;8.48;;;;;;;16.12;100.00;100679.34;5024803;28;20034;-57
2023/09/17 05:04:02;;;;;;;14.30;7.78;;;;;;;16.11;100.00;100679.59;5019607;28;20045;-55
2023/09/17 05:06:27;;;;;;;16.48;8.43;;;;;;;16.09;100.00;100673.63;5022218;28;20033;-54
2023/09/17 05:08:52;;;;;;;23.45;9.30;;;;;;;16.10;100.00;100672.56;5013090;28;20030;-55
2023/09/17 05:11:18;;;;;;;15.82;10.23;;;;;;;16.07;100.00;100678.38;5019658;28;20030;-53
2023/09/17 05:13:43;;;;;;;12.70;8.05;;;;;;;16.09;100.00;100678.97;5020315;28;20043;-52
2023/09/17 05:16:08;;;;;;;16.92;9.23;;;;;;;16.10;100.00;100672.56;5022164;28;20045;-57
2023/09/17 05:18:34;;;;;;;22.50;9.40;;;;;;;16.09;100.00;100677.13;5019141;28;20548;-57
2023/09/17 05:20:59;;;;;;;23.10;10.05;;;;;;;16.09;100.00;100677.13;5016694;28;20095;-55
2023/09/17 05:23:24;;;;;;;23.75;10.07;;;;;;;16.12;100.00;100675.84;5018573;28;20056;-56
2023/09/17 05:25:50;;;;;;;9.70;7.32;;;;;;;16.13;100.00;100694.38;5018457;28;20041;-52
2023/09/17 05:28:15;;;;;;;13.48;7.65;;;;;;;16.12;100.00;100699.94;5014019;28;20144;-52
2023/09/17 05:30:41;;;;;;;13.60;9.13;;;;;;;16.11;100.00;100693.75;5021125;28;20030;-55
2023/09/17 05:33:06;;;;;;;19.73;7.70;;;;;;;16.10;100.00;100696.66;5022290;28;20036;-55
2023/09/17 05:35:36;;;;;;;13.68;8.73;;;;;;;16.13;100.00;100702.41;5011242;28;20030;-54
2023/09/17 05:38:02;;;;;;;16.85;7.57;;;;;;;16.13;100.00;100701.56;5016101;28;20025;-52
2023/09/17 05:40:27;;;;;;;12.85;7.22;;;;;;;16.10;100.00;100702.00;5018008;28;20471;-52
2023/09/17 05:42:53;;;;;;;19.70;9.57;;;;;;;16.11;100.00;100704.47;5017969;28;20036;-52
2023/09/17 05:45:18;;;;;;;13.27;7.72;;;;;;;16.09;100.00;100703.06;5026498;28;20086;-52
2023/09/17 05:47:44;;;;;;;16.40;7.88;;;;;;;16.10;100.00;100700.13;5026314;28;20104;-54
2023/09/17 05:50:12;;;;;;;13.73;7.97;;;;;;;16.10;100.00;100693.97;5018338;28;20121;-55
2023/09/17 05:52:37;;;;;;;9.88;7.40;;;;;;;16.11;100.00;100696.44;5027269;28;20037;-53
2023/09/17 05:55:06;;;;;;;15.07;7.55;;;;;;;16.12;100.00;100691.91;5024094;28;20471;-54
2023/09/17 05:57:32;;;;;;;13.43;7.90;;;;;;;16.13;100.00;100685.50;5015978;28;20061;-54
2023/09/17 05:59:58;;;;;;;12.55;6.75;;;;;;;16.17;100.00;100681.34;5019498;28;20052;-55
2023/09/17 06:02:23;;;;;;;13.38;6.47;;;;;;;16.16;100.00;100681.56;5025056;28;20053;-55
2023/09/17 06:04:53;;;;;;;17.95;8.05;;;;;;;16.16;100.00;100687.75;5022520;28;20033;-52
2023/09/17 06:07:19;;;;;;;17.65;9.00;;;;;;;16.17;100.00;100686.69;5022089;28;20446;-51
2023/09/17 06:09:44;;;;;;;14.60;8.07;;;;;;;16.24;100.00;100697.34;5021056;28;20079;-52
2023/09/17 06:12:09;;;;;;;14.13;7.55;;;;;;;16.25;100.00;100702.47;5023268;28;20025;-51
2023/09/17 06:14:35;;;;;;;18.70;8.75;;;;;;;16.28;100.00;100691.31;5025934;28;20076;-53
2023/09/17 06:17:00;;;;;;;11.60;6.88;;;;;;;16.31;100.00;100688.16;5021674;28;20060;-52
2023/09/17 06:19:27;;;;;;;18.60;7.60;;;;;;;16.33;100.00;100678.06;5022551;28;20133;-54
2023/09/17 06:21:53;;;;;;;12.85;7.95;;;;;;;16.35;100.00;100685.88;5023877;28;20032;-54
2023/09/17 06:24:18;;;;;;;20.52;9.75;;;;;;;16.36;100.00;100688.31;5033856;28;20030;-54
2023/09/17 06:26:43;;;;;;;11.95;8.45;;;;;;;16.39;100.00;100694.28;5020490;28;20381;-55
2023/09/17 06:29:09;;;;;;;16.35;7.28;;;;;;;16.43;100.00;100701.63;5021244;28;20061;-50
2023/09/17 06:31:35;;;;;;;17.15;7.53;;;;;;;16.44;100.00;100700.59;5025983;28;20568;-51
2023/09/17 06:34:00;;;;;;;13.57;7.05;;;;;;;16.45;100.00;100702.22;5016748;28;20442;-52
2023/09/17 06:36:27;;;;;;;25.88;8.18;;;;;;;16.48;100.00;100696.44;5017657;28;20124;-50
2023/09/17 06:38:52;;;;;;;17.42;8.15;;;;;;;16.50;100.00;100694.34;5018556;28;20068;-52
2023/09/17 06:41:18;;;;;;;11.75;6.85;;;;;;;16.56;100.00;100687.28;5020525;28;20187;-53
2023/09/17 06:43:43;;;;;;;9.75;5.97;;;;;;;16.61;100.00;100684.75;5021305;28;20028;-54
2023/09/17 06:46:08;;;;;;;16.77;7.60;;;;;;;16.64;100.00;100683.47;5021693;28;20068;-50
2023/09/17 06:48:34;;;;;;;11.35;6.85;;;;;;;16.69;100.00;100680.94;5020587;28;20036;-55
2023/09/17 06:51:01;;;;;;;9.55;6.05;;;;;;;16.72;100.00;100683.97;5013452;28;20076;-52
2023/09/17 06:53:26;;;;;;;12.73;6.05;;;;;;;16.73;100.00;100671.41;5018340;28;20450;-55
2023/09/17 06:55:52;;;;;;;19.13;7.68;;;;;;;16.74;100.00;100681.06;5020388;28;20029;-52
2023/09/17 06:58:17;;;;;;;15.65;5.78;;;;;;;16.76;100.00;100676.31;5021118;28;20033;-52
2023/09/17 07:00:43;;;;;;;15.07;5.70;;;;;;;16.79;100.00;100676.69;5027193;28;20033;-54
2023/09/17 07:03:09;;;;;;;16.88;8.80;;;;;;;16.76;100.00;100671.75;5015857;28;20049;-52
2023/09/17 07:05:34;;;;;;;8.18;5.05;;;;;;;16.78;100.00;100672.38;5021197;28;20047;-55
2023/09/17 07:07:59;;;;;;;13.77;6.30;;;;;;;16.80;100.00;100674.81;5020644;28;20079;-55
2023/09/17 07:10:25;;;;;;;8.90;5.38;;;;;;;16.81;100.00;100678.34;5020400;28;20037;-53
2023/09/17 07:12:51;;;;;;;12.75;5.53;;;;;;;16.84;100.00;100685.91;5022230;28;20040;-55
2023/09/17 07:15:18;;;;;;;10.60;6.22;;;;;;;16.78;100.00;100685.78;5016791;28;20140;-55
2023/09/17 07:17:43;;;;;;;11.85;6.15;;;;;;;16.76;100.00;100684.34;5010163;28;20029;-53
2023/09/17 07:20:13;;;;;;;15.13;5.55;;;;;;;16.77;100.00;100684.13;5021393;28;20394;-55
2023/09/17 07:22:38;;;;;;;7.38;5.28;;;;;;;16.77;100.00;100684.13;5018799;28;20259;-51
2023/09/17 07:25:04;;;;;;;11.07;4.43;;;;;;;16.78;100.00;100677.75;5024395;28;20029;-52
2023/09/17 07:27:30;;;;;;;13.20;5.32;;;;;;;16.82;100.00;100679.97;5021969;28;20041;-53
2023/09/17 07:29:56;;;;;;;11.10;5.65;;;;;;;16.84;100.00;100667.16;5022649;28;20061;-51
2023/09/17 07:32:25;;;;;;;13.30;5.65;;;;;;;16.83;100.00;100668.19;5023169;28;20055;-51
2023/09/17 07:34:50;;;;;;;13.00;6.18;;;;;;;16.87;100.00;100667.53;5029185;28;20120;-53
2023/09/17 07:37:18;;;;;;;7.38;5.10;;;;;;;16.89;100.00;100654.72;5022256;28;20124;-52
2023/09/17 07:39:45;;;;;;;9.35;5.72;;;;;;;16.91;100.00;100662.50;5018611;28;20038;-55
2023/09/17 07:42:10;;;;;;;13.15;6.13;;;;;;;17.02;100.00;100660.94;5021623;28;20038;-53
2023/09/17 07:44:35;;;;;;;11.02;6.13;;;;;;;17.10;100.00;100661.41;5020939;28;20564;-52
2023/09/17 07:47:01;;;;;;;9.00;4.85;;;;;;;17.21;100.00;100668.66;5021126;28;20113;-54
2023/09/17 07:49:28;;;;;;;8.07;5.10;;;;;;;17.38;100.00;100668.00;5019552;28;20459;-56
2023/09/17 07:51:53;;;;;;;7.65;3.65;;;;;;;17.52;100.00;100666.72;5023046;28;20121;-52
2023/09/17 07:54:19;;;;;;;11.00;5.60;;;;;;;17.67;100.00;100666.25;5020932;28;20069;-55
2023/09/17 07:56:44;;;;;;;9.73;4.85;;;;;;;17.84;100.00;100661.03;5020534;28;20445;-51
2023/09/17 07:59:10;;;;;;;12.15;5.50;;;;;;;17.93;100.00;100638.16;5019357;28;20091;-52
2023/09/17 08:01:35;;;;;;;7.30;4.78;;;;;;;18.19;100.00;100606.50;5022461;28;20029;-52
2023/09/17 08:04:00;;;;;;;12.07;3.85;;;;;;;18.36;100.00;100603.88;5017910;28;20182;-53
2023/09/17 08:06:26;;;;;;;7.60;4.53;;;;;;;18.68;100.00;100588.88;5020168;28;20688;-56
2023/09/17 08:08:51;;;;;;;10.85;5.38;;;;;;;18.64;100.00;100576.19;5013008;28;20376;-53
2023/09/17 08:11:19;;;;;;;5.88;4.10;;;;;;;18.67;100.00;100565.78;5016731;28;20561;-54
2023/09/17 08:13:44;;;;;;;9.05;4.75;;;;;;;18.71;100.00;100548.09;5016567;28;20034;-57
2023/09/17 08:16:09;;;;;;;6.80;4.13;;;;;;;18.76;100.00;100549.28;5024768;28;20025;-51
2023/09/17 08:18:35;;;;;;;6.43;3.53;;;;;;;18.92;100.00;100545.78;5016654;28;20582;-56
2023/09/17 08:21:00;;;;;;;10.45;4.03;;;;;;;18.95;100.00;100523.84;5018493;28;20479;-55
2023/09/17 08:23:26;;;;;;;4.72;3.75;;;;;;;19.10;100.00;100528.59;5013544;28;20031;-55
2023/09/17 08:25:52;;;;;;;6.35;4.00;;;;;;;19.12;100.00;100515.72;5013628;28;20053;-51
2023/09/17 08:28:18;;;;;;;7.18;4.07;;;;;;;19.08;100.00;100514.63;5018685;28;20057;-52
2023/09/17 08:30:43;;;;;;;6.28;3.38;;;;;;;19.04;100.00;100508.91;5019144;28;20028;-49
2023/09/17 08:33:10;;;;;;;7.32;3.55;;;;;;;19.06;100.00;100503.28;5015840;28;20065;-55
2023/09/17 08:35:36;;;;;;;5.47;4.10;;;;;;;19.06;100.00;100505.97;5017856;28;20299;-55
2023/09/17 08:38:01;;;;;;;9.68;4.50;;;;;;;19.08;100.00;100507.38;5011000;28;20285;-50
2023/09/17 08:40:27;;;;;;;9.32;4.10;;;;;;;19.34;100.00;100500.47;5014420;28;20410;-51
2023/09/17 08:42:54;;;;;;;6.32;3.22;;;;;;;19.64;100.00;100495.72;5016629;28;20451;-54
2023/09/17 08:45:20;;;;;;;5.75;3.50;;;;;;;19.82;100.00;100503.50;5011864;28;20021;-55
2023/09/17 08:47:46;;;;;;;5.28;3.70;;;;;;;19.76;100.00;100502.63;5000490;28;20045;-52
2023/09/17 08:50:11;;;;;;;6.15;3.88;;;;;;;19.76;100.00;100494.56;5013870;28;20029;-54
2023/09/17 08:52:41;;;;;;;3.45;2.72;;;;;;;19.90;100.00;100504.91;5017182;28;20061;-55
2023/09/17 08:55:09;;;;;;;7.90;3.45;;;;;;;20.10;100.00;100485.50;5012919;28;20038;-52
2023/09/17 08:57:37;;;;;;;3.72;3.35;;;;;;;19.98;100.00;100486.47;5017716;28;20562;-54
2023/09/17 09:00:11;;;;;;;7.22;3.53;;;;;;;19.99;100.00;100481.91;5014672;28;20034;-56
2023/09/17 09:02:51;;;;;;;7.45;3.67;;;;;;;19.96;100.00;100487.78;5017995;28;20475;-51
2023/09/17 09:05:17;;;;;;;6.13;3.65;;;;;;;19.85;100.00;100491.41;5014477;28;20427;-51
2023/09/17 09:07:44;;;;;;;9.05;3.55;;;;;;;19.93;100.00;100493.66;5007846;28;20032;-53
2023/09/17 09:10:12;;;;;;;7.85;3.60;;;;;;;20.08;100.00;100483.03;5015978;28;20504;-55
2023/09/17 09:12:38;;;;;;;6.63;3.20;;;;;;;20.09;100.00;100457.78;5016558;28;20026;-54
2023/09/17 09:15:05;;;;;;;6.20;2.88;;;;;;;20.10;100.00;100454.00;5012953;28;20122;-54
2023/09/17 09:17:30;;;;;;;7.63;3.42;;;;;;;20.18;100.00;100458.13;5020525;28;20734;-52
2023/09/17 09:19:56;;;;;;;6.50;2.75;;;;;;;20.20;100.00;100451.41;5011818;28;20085;-50
2023/09/17 09:22:24;;;;;;;3.35;2.20;;;;;;;20.16;100.00;100461.09;5022299;28;20098;-54
2023/09/17 09:24:50;;;;;;;3.28;2.60;;;;;;;19.91;100.00;100453.56;5021453;28;20041;-54
2023/09/17 09:27:16;;;;;;;3.03;2.75;;;;;;;19.97;100.00;100457.13;5021681;28;20029;-54
2023/09/17 09:29:44;;;;;;;5.03;2.65;;;;;;;19.94;100.00;100442.28;5021746;28;20478;-52
2023/09/17 09:32:10;;;;;;;4.43;1.92;;;;;;;20.02;100.00;100441.81;5017867;28;20144;-52
2023/09/17 09:34:38;;;;;;;3.55;1.95;;;;;;;20.10;100.00;100428.97;5021711;28;20029;-54
2023/09/17 09:37:08;;;;;;;3.42;2.78;;;;;;;19.91;100.00;100423.97;5023974;28;20144;-53
2023/09/17 09:39:37;;;;;;;6.00;2.95;;;;;;;19.90;100.00;100425.00;5024755;28;20100;-55
2023/09/17 09:42:08;;;;;;;6.90;3.10;;;;;;;19.95;100.00;100432.31;5018982;28;20038;-54
2023/09/17 09:44:35;;;;;;;2.65;2.13;;;;;;;20.09;100.00;100430.88;5024825;28;20029;-50
2023/09/17 09:47:05;;;;;;;6.18;1.95;;;;;;;20.18;100.00;100429.31;5016613;28;20029;-50
2023/09/17 09:49:43;;;;;;;4.65;2.97;;;;;;;20.11;100.00;100439.50;5014294;28;20149;-54
2023/09/17 09:52:11;;;;;;;3.00;1.58;;;;;;;20.01;100.00;100439.41;5018784;28;20122;-53
2023/09/17 09:54:36;;;;;;;3.05;2.33;;;;;;;20.13;100.00;100441.91;5020373;28;20034;-57
2023/09/17 09:57:05;;;;;;;5.50;2.42;;;;;;;20.19;100.00;100444.41;5022405;28;20037;-54
2023/09/17 09:59:32;;;;;;;2.50;1.98;;;;;;;20.54;100.00;100443.09;5019567;28;20030;-51
2023/09/17 10:01:58;;;;;;;3.55;2.50;;;;;;;20.85;100.00;100429.84;5023420;28;20036;-57
2023/09/17 10:04:25;;;;;;;4.35;1.75;;;;;;;21.08;100.00;100428.63;5021886;28;20072;-58
2023/09/17 10:06:50;;;;;;;3.30;1.80;;;;;;;21.17;100.00;100418.13;5010004;28;20512;-54
2023/09/17 10:09:17;;;;;;;8.48;2.35;;;;;;;21.20;100.00;100414.94;5015824;28;20034;-58
2023/09/17 10:11:42;;;;;;;1.92;1.33;;;;;;;21.26;100.00;100405.78;5016455;28;20902;-51
2023/09/17 10:14:08;;;;;;;5.40;1.38;;;;;;;21.22;100.00;100399.28;5020205;28;20236;-53
2023/09/17 10:16:36;;;;;;;3.05;1.80;;;;;;;21.28;100.00;100414.44;5016660;28;20036;-55
2023/09/17 10:19:04;;;;;;;6.45;1.40;;;;;;;21.19;100.00;100421.38;5015502;28;20037;-51
2023/09/17 10:21:33;;;;;;;1.48;1.30;;;;;;;21.11;100.00;100426.19;5015406;28;20038;-55
2023/09/17 10:24:00;;;;;;;1.02;0.98;;;;;;;21.02;100.00;100432.38;5017661;28;20037;-54
2023/09/17 10:26:32;;;;;;;2.85;1.48;;;;;;;20.99;100.00;100425.63;5014985;28;20029;-54
2023/09/17 10:28:59;;;;;;;2.15;1.65;;;;;;;20.80;100.00;100422.53;5016311;28;20037;-53
2023/09/17 10:31:25;;;;;;;1.50;1.23;;;;;;;20.74;100.00;100417.38;5019546;28;20033;-53
2023/09/17 10:33:52;;;;;;;1.85;1.45;;;;;;;20.86;100.00;100418.00;5017673;28;20119;-55
2023/09/17 10:36:18;;;;;;;3.33;1.05;;;;;;;20.85;100.00;100409.09;5020155;28;20021;-56
2023/09/17 10:38:46;;;;;;;3.20;1.45;;;;;;;20.71;100.00;100399.06;5018069;28;20509;-56
2023/09/17 10:41:13;;;;;;;2.25;0.85;;;;;;;20.69;100.00;100400.09;5017814;28;20087;-52
2023/09/17 10:43:39;;;;;;;6.20;1.33;;;;;;;20.82;100.00;100393.44;5018128;28;20398;-54
2023/09/17 10:46:06;;;;;;;1.65;1.00;;;;;;;20.90;100.00;100398.34;5009591;28;20060;-56
2023/09/17 10:48:33;;;;;;;1.17;0.82;;;;;;;21.00;100.00;100389.50;5012398;28;21010;-54
2023/09/17 10:50:59;;;;;;;3.03;1.08;;;;;;;21.22;100.00;100385.81;5016825;28;20034;-50
2023/09/17 10:53:28;;;;;;;4.85;1.05;;;;;;;21.39;100.00;100388.34;4999403;28;20433;-50
2023/09/17 10:56:04;;;;;;;2.22;1.33;;;;;;;21.48;100.00;100390.25;5013543;28;20018;-53
2023/09/17 10:58:53;;;;;;;2.13;1.15;;;;;;;21.52;100.00;100391.34;5008208;28;20034;-51
2023/09/17 11:01:27;;;;;;;4.20;1.45;;;;;;;21.60;100.00;100383.81;4982310;28;20057;-55
2023/09/17 11:04:00;;;;;;;1.33;1.00;;;;;;;21.70;100.00;100383.81;5015977;28;20498;-51
2023/09/17 11:06:27;;;;;;;1.75;1.30;;;;;;;21.62;100.00;100378.97;5010387;28;20083;-53
2023/09/17 11:08:55;;;;;;;2.63;0.80;;;;;;;21.70;100.00;100375.72;5014149;28;20060;-53